Pagrindinis puslapis
METAR-TAF:

METAR-TAF

Oro uostai :

Tarptautinis Philip S. W. Goldson oro uostas

Belizas, Belizas

platuma: 17-32N, ilguma: 088-18W, Aukštis: 5 m

Dabartinis oras

Ataskaita buvo paskelbta 14 minutes, ne 23:00 UTC
Vėjas 5 kt iš Rytų
Temperatūra 30°C
Drėgmė 75%
Slėgis 1008 hPa
Matomumas 10 km arba daugiau
Mažai debesys ne aukštis 2200 ft

METAR: MZBZ 192300Z 10005KT 9999 FEW022 30/25 A2978 Q1008 NOSIG RMK DIST CBTOP-NW

Laikas: 17:14 (23:14 UTC)

Prognozė

Ataskaita buvo paskelbta 8 valandos ir 14 minutes, ne 15:00 UTC
Prognozė galioja nuo 19 metu 18 UTC su 20 metu 18 UTC
Vėjas 5 kt iš Šiaurės Rytų
Matomumas 10 km arba daugiau
Išsisklaidę debesys ne aukštis 2300 ft
Tikimybė 30% :
Laikinai
nuo 20 metu 09 UTC su 20 metu 12 UTC
Matomumas: 5000 m
Su prošvaistėmis ne aukštis 1500 ft
Su prošvaistėmis ne aukštis 3500 ft
lietus

TAF: MZBZ 191500Z 1918/2018 04005KT 9999 SCT023 PROB30 TEMPO 2009/2012 5000 SHRA BKN015 BKN035

Orai ataskaitas ir orų prognozės (METAR, TAF).

turimą stotys yra geltonos ir raudonos taškus žemėlapyje.

Perkelti pele per norėdami pamatyti stoties vardą.

Tada spustelėkite, norėdami matyti oro stebėjimo ir prognozės.

Norėdami pakeisti žemėlapį: spustelėkite ant žalios mygtukų su juodo kryžiaus žemyn,; žalią mygtuką su brūkšneliu, jei norite nutolinti; arba žalių rodyklių gretimoms žemėlapius.


METAR-TAF: